createdAt,value
2018-05-13T00:00:56.004Z,11.67
2018-05-13T00:03:24.282Z,12.50
2018-05-13T00:05:52.570Z,12.90
2018-05-13T00:08:22.189Z,11.20
2018-05-13T00:10:51.083Z,11.17
2018-05-13T00:13:31.976Z,13.73
2018-05-13T00:16:00.302Z,10.80
2018-05-13T00:18:28.797Z,13.20
2018-05-13T00:20:58.702Z,12.50
2018-05-13T00:23:28.256Z,12.60
2018-05-13T00:25:56.630Z,14.97
2018-05-13T00:28:25.290Z,15.33
2018-05-13T00:30:53.666Z,13.80
2018-05-13T00:33:22.411Z,13.43
2018-05-13T00:35:50.917Z,12.83
2018-05-13T00:38:19.694Z,11.83
2018-05-13T00:40:48.491Z,12.83
2018-05-13T00:43:17.824Z,13.00
2018-05-13T00:45:46.460Z,13.97
2018-05-13T00:48:15.953Z,14.00
2018-05-13T00:50:44.770Z,12.97
2018-05-13T00:53:14.557Z,15.10
2018-05-13T00:55:43.338Z,13.83
2018-05-13T00:58:12.128Z,14.50
2018-05-13T01:00:40.615Z,13.23
2018-05-13T01:03:09.036Z,12.97
2018-05-13T01:05:38.110Z,19.73
2018-05-13T01:08:06.425Z,14.57
2018-05-13T01:10:35.015Z,14.17
2018-05-13T01:13:03.341Z,15.20
2018-05-13T01:15:31.910Z,14.63
2018-05-13T01:18:00.657Z,14.57
2018-05-13T01:20:29.774Z,14.47
2018-05-13T01:22:58.357Z,16.03
2018-05-13T01:25:28.114Z,16.67
2018-05-13T01:27:57.624Z,16.27
2018-05-13T01:30:26.634Z,15.57
2018-05-13T01:32:54.855Z,14.57
2018-05-13T01:35:23.105Z,16.37
2018-05-13T01:37:51.531Z,14.50
2018-05-13T01:40:19.802Z,14.80
2018-05-13T01:42:48.064Z,16.30
2018-05-13T01:45:16.889Z,16.50
2018-05-13T01:47:46.162Z,17.70
2018-05-13T01:50:15.647Z,15.60
2018-05-13T01:52:44.432Z,17.33
2018-05-13T01:55:13.528Z,19.00
2018-05-13T01:57:42.962Z,18.00
2018-05-13T02:00:11.711Z,17.23
2018-05-13T02:02:39.797Z,18.00
2018-05-13T02:05:08.450Z,17.23
2018-05-13T02:07:37.156Z,19.20
2018-05-13T02:10:05.741Z,16.23
2018-05-13T02:12:34.337Z,16.90
2018-05-13T02:15:03.013Z,17.37
2018-05-13T02:17:31.767Z,20.33
2018-05-13T02:19:59.878Z,18.43
2018-05-13T02:22:28.146Z,20.93
2018-05-13T02:24:57.678Z,18.77
2018-05-13T02:27:27.577Z,19.47
2018-05-13T02:29:56.315Z,18.77
2018-05-13T02:32:25.154Z,37.07
2018-05-13T02:34:54.845Z,17.30
2018-05-13T02:37:23.154Z,18.73
2018-05-13T02:39:52.410Z,19.77
2018-05-13T02:42:20.823Z,17.73
2018-05-13T02:44:49.286Z,18.00
2018-05-13T02:47:17.763Z,18.13
2018-05-13T02:49:45.976Z,17.60
2018-05-13T02:52:14.859Z,19.13
2018-05-13T02:54:44.588Z,18.57
2018-05-13T02:57:14.235Z,17.40
2018-05-13T02:59:42.619Z,19.73
2018-05-13T03:02:11.147Z,18.20
2018-05-13T03:04:39.484Z,19.80
2018-05-13T03:07:08.265Z,19.10
2018-05-13T03:09:36.851Z,22.10
2018-05-13T03:12:05.036Z,19.67
2018-05-13T03:14:33.265Z,20.90
2018-05-13T03:17:02.098Z,20.47
2018-05-13T03:19:30.382Z,24.87
2018-05-13T03:21:59.173Z,22.73
2018-05-13T03:24:27.450Z,21.17
2018-05-13T03:26:55.722Z,20.77
2018-05-13T03:29:26.360Z,21.33
2018-05-13T03:31:54.412Z,21.40
2018-05-13T03:34:22.564Z,22.27
2018-05-13T03:36:50.901Z,20.63
2018-05-13T03:39:19.769Z,20.13
2018-05-13T03:41:48.360Z,21.10
2018-05-13T03:44:16.548Z,24.30
2018-05-13T03:46:44.702Z,21.40
2018-05-13T03:49:12.879Z,23.13
2018-05-13T03:51:41.875Z,21.07
2018-05-13T03:54:11.305Z,20.77
2018-05-13T03:56:40.854Z,21.60
2018-05-13T03:59:09.663Z,23.83
2018-05-13T04:01:40.285Z,20.80
2018-05-13T04:04:08.559Z,22.53
2018-05-13T04:06:37.877Z,20.37
2018-05-13T04:12:22.488Z,20.77
2018-05-13T04:15:17.715Z,20.00
2018-05-13T04:17:48.102Z,20.87
2018-05-13T04:20:16.448Z,18.70
2018-05-13T04:22:44.898Z,22.33
2018-05-13T04:25:13.336Z,18.97
2018-05-13T04:27:57.143Z,21.50
2018-05-13T04:30:25.623Z,21.00
2018-05-13T04:32:53.788Z,20.63
2018-05-13T04:35:23.837Z,20.47
2018-05-13T04:37:52.055Z,20.47
2018-05-13T04:40:20.754Z,21.80
2018-05-13T04:42:49.575Z,21.63
2018-05-13T04:45:19.416Z,22.00
2018-05-13T04:47:47.798Z,24.97
2018-05-13T04:50:16.350Z,23.53
2018-05-13T04:52:44.923Z,25.10
2018-05-13T04:55:13.915Z,22.80
2018-05-13T04:57:44.758Z,25.10
2018-05-13T05:00:13.964Z,22.30
2018-05-13T05:02:43.927Z,22.30
2018-05-13T05:05:13.133Z,24.63
2018-05-13T05:07:41.784Z,24.27
2018-05-13T05:10:10.500Z,23.20
2018-05-13T05:12:38.628Z,23.00
2018-05-13T05:15:07.559Z,23.17
2018-05-13T05:17:35.739Z,21.13
2018-05-13T05:20:04.428Z,21.60
2018-05-13T05:22:32.791Z,21.17
2018-05-13T05:25:01.075Z,20.53
2018-05-13T05:27:29.615Z,22.43
2018-05-13T05:30:01.922Z,22.87
2018-05-13T05:32:30.494Z,23.80
2018-05-13T05:34:59.115Z,21.87
2018-05-13T05:37:27.476Z,21.07
2018-05-13T05:39:55.881Z,22.60
2018-05-13T05:42:24.202Z,20.80
2018-05-13T05:44:53.018Z,20.47
2018-05-13T05:47:21.372Z,23.30
2018-05-13T05:49:50.346Z,20.67
2018-05-13T05:52:19.420Z,20.23
2018-05-13T05:54:50.475Z,26.90
2018-05-13T05:57:19.304Z,20.67
2018-05-13T05:59:47.648Z,21.00
2018-05-13T06:02:16.070Z,19.60
2018-05-13T06:04:44.247Z,21.83
2018-05-13T06:07:12.724Z,20.00
2018-05-13T06:09:40.870Z,19.63
2018-05-13T06:12:10.508Z,19.40
2018-05-13T06:14:38.808Z,21.67
2018-05-13T06:17:07.063Z,21.10
2018-05-13T06:19:36.151Z,20.07
2018-05-13T06:22:04.481Z,20.47
2018-05-13T06:24:33.277Z,19.97
2018-05-13T06:27:02.282Z,23.87
2018-05-13T06:29:31.217Z,21.80
2018-05-13T06:31:59.500Z,23.40
2018-05-13T06:34:29.431Z,23.67
2018-05-13T06:36:57.831Z,20.37
2018-05-13T06:39:26.809Z,20.73
2018-05-13T06:41:55.572Z,19.43
2018-05-13T06:44:24.438Z,18.17
2018-05-13T06:46:53.731Z,18.50
2018-05-13T06:49:22.047Z,19.03
2018-05-13T06:51:50.282Z,17.23
2018-05-13T06:54:18.876Z,19.00
2018-05-13T06:56:46.969Z,19.70
2018-05-13T06:59:15.088Z,20.47
2018-05-13T07:01:43.258Z,18.70
2018-05-13T07:04:11.445Z,16.90
2018-05-13T07:06:40.702Z,15.30
2018-05-13T07:09:08.878Z,15.40
2018-05-13T07:11:37.961Z,15.57
2018-05-13T07:14:06.253Z,16.93
2018-05-13T07:16:35.131Z,16.47
2018-05-13T07:19:04.096Z,14.97
2018-05-13T07:21:33.267Z,15.53
2018-05-13T07:24:01.477Z,14.97
2018-05-13T07:26:33.646Z,15.33
2018-05-13T07:29:02.069Z,14.47
2018-05-13T07:31:30.321Z,14.37
2018-05-13T07:33:59.322Z,14.37
2018-05-13T07:36:28.374Z,20.10
2018-05-13T07:38:57.172Z,15.87
2018-05-13T07:41:25.870Z,17.67
2018-05-13T07:43:54.190Z,17.70
2018-05-13T07:46:23.643Z,16.40
2018-05-13T07:48:52.181Z,18.80
2018-05-13T07:51:20.318Z,18.53
2018-05-13T07:53:49.123Z,16.60
2018-05-13T07:56:18.216Z,16.17
2018-05-13T07:58:46.352Z,15.87
2018-05-13T08:01:14.541Z,16.40
2018-05-13T08:03:42.988Z,15.40
2018-05-13T08:06:12.583Z,14.63
2018-05-13T08:08:41.391Z,14.73
2018-05-13T08:11:11.606Z,14.30
2018-05-13T08:13:40.077Z,14.23
2018-05-13T08:16:09.782Z,13.10
2018-05-13T08:18:38.069Z,12.23
2018-05-13T08:21:06.703Z,12.10
2018-05-13T08:23:35.828Z,11.33
2018-05-13T08:26:04.227Z,10.53
2018-05-13T08:28:33.216Z,12.47
2018-05-13T08:31:01.800Z,11.37
2018-05-13T08:33:30.720Z,9.67
2018-05-13T08:36:00.161Z,11.23
2018-05-13T08:38:30.302Z,10.70
2018-05-13T08:40:58.514Z,9.57
2018-05-13T08:43:26.818Z,12.73
2018-05-13T08:45:55.515Z,13.63
2018-05-13T08:48:24.062Z,13.03
2018-05-13T08:50:52.331Z,12.50
2018-05-13T08:53:20.759Z,13.90
2018-05-13T08:55:49.812Z,11.40
2018-05-13T08:58:21.753Z,12.63
2018-05-13T09:00:50.570Z,12.20
2018-05-13T09:03:19.754Z,12.97
2018-05-13T09:05:48.764Z,12.87
2018-05-13T09:08:17.077Z,12.87
2018-05-13T09:10:46.148Z,12.13
2018-05-13T09:13:14.285Z,13.90
2018-05-13T09:15:42.362Z,12.43
2018-05-13T09:18:11.614Z,11.43
2018-05-13T09:20:40.170Z,11.90
2018-05-13T09:23:09.564Z,12.23
2018-05-13T09:25:38.569Z,11.87
2018-05-13T09:28:06.818Z,11.70
2018-05-13T09:30:36.005Z,12.50
2018-05-13T09:33:04.338Z,11.47
2018-05-13T09:35:32.989Z,11.27
2018-05-13T09:38:01.996Z,11.07
2018-05-13T09:40:31.367Z,12.10
2018-05-13T09:43:01.514Z,10.80
2018-05-13T09:45:29.812Z,11.93
2018-05-13T09:47:58.151Z,11.43
2018-05-13T09:50:27.541Z,11.70
2018-05-13T09:52:56.028Z,11.13
2018-05-13T09:55:28.781Z,10.80
2018-05-13T09:57:56.964Z,13.93
2018-05-13T10:00:25.281Z,13.03
2018-05-13T10:02:54.924Z,14.53
2018-05-13T10:05:23.042Z,10.57
2018-05-13T10:07:52.082Z,10.40
2018-05-13T10:10:20.376Z,12.53
2018-05-13T10:12:48.919Z,12.27
2018-05-13T10:15:18.540Z,9.73
2018-05-13T10:17:46.846Z,10.90
2018-05-13T10:20:15.021Z,10.17
2018-05-13T10:22:43.882Z,10.23
2018-05-13T10:25:12.480Z,13.50
2018-05-13T10:27:41.117Z,12.00
2018-05-13T10:30:10.556Z,9.20
2018-05-13T10:32:39.857Z,8.50
2018-05-13T10:35:12.341Z,8.47
2018-05-13T10:37:41.502Z,9.43
2018-05-13T10:40:09.579Z,10.27
2018-05-13T10:42:37.691Z,9.27
2018-05-13T10:45:05.951Z,8.50
2018-05-13T10:47:34.454Z,9.50
2018-05-13T10:50:03.093Z,8.83
2018-05-13T10:52:31.522Z,7.17
2018-05-13T10:54:59.496Z,8.70
2018-05-13T10:57:27.682Z,7.10
2018-05-13T10:59:56.618Z,7.47
2018-05-13T11:02:24.667Z,8.00
2018-05-13T11:04:52.757Z,8.97
2018-05-13T11:07:21.138Z,8.37
2018-05-13T11:09:49.172Z,6.43
2018-05-13T11:12:17.974Z,5.90
2018-05-13T11:14:47.029Z,8.27
2018-05-13T11:17:16.206Z,7.17
2018-05-13T11:19:44.373Z,6.60
2018-05-13T11:22:12.539Z,6.93
2018-05-13T11:24:40.833Z,5.83
2018-05-13T11:27:09.650Z,7.23
2018-05-13T11:29:38.414Z,6.97
2018-05-13T11:32:06.452Z,5.63
2018-05-13T11:34:34.532Z,5.70
2018-05-13T11:37:02.722Z,5.07
2018-05-13T11:39:30.828Z,5.43
2018-05-13T11:42:00.274Z,5.30
2018-05-13T11:44:29.240Z,6.03
2018-05-13T11:46:57.350Z,5.63
2018-05-13T11:49:25.447Z,5.73
2018-05-13T11:51:54.322Z,5.30
2018-05-13T11:54:22.385Z,5.27
2018-05-13T11:56:51.035Z,5.07
2018-05-13T11:59:19.284Z,8.73
2018-05-13T12:01:48.225Z,5.67
2018-05-13T12:04:16.695Z,5.50
2018-05-13T12:06:45.010Z,5.47
2018-05-13T12:09:13.413Z,5.73
2018-05-13T12:11:43.043Z,6.53
2018-05-13T12:14:11.241Z,6.77
2018-05-13T12:16:39.743Z,5.73
2018-05-13T12:19:08.571Z,6.30
2018-05-13T12:21:36.960Z,6.67
2018-05-13T12:24:05.890Z,9.07
2018-05-13T12:26:34.050Z,6.03
2018-05-13T12:29:02.276Z,6.33
2018-05-13T12:31:30.337Z,5.70
2018-05-13T12:33:58.447Z,6.00
2018-05-13T12:36:27.234Z,6.63
2018-05-13T12:38:55.829Z,6.13
2018-05-13T12:41:24.624Z,5.30
2018-05-13T12:43:52.726Z,7.70
2018-05-13T12:46:21.874Z,9.83
2018-05-13T12:48:50.028Z,7.83
2018-05-13T12:51:20.728Z,8.83
2018-05-13T12:53:48.789Z,8.37
2018-05-13T12:56:17.034Z,9.03
2018-05-13T12:58:46.253Z,8.33
2018-05-13T13:01:14.285Z,8.43
2018-05-13T13:03:42.691Z,9.53
2018-05-13T13:06:10.904Z,8.20
2018-05-13T13:08:39.076Z,9.80
2018-05-13T13:11:08.040Z,7.40
2018-05-13T13:13:36.934Z,8.43
2018-05-13T13:16:05.062Z,9.17
2018-05-13T13:18:33.262Z,8.80
2018-05-13T13:21:01.908Z,11.60
2018-05-13T13:23:30.719Z,9.43
2018-05-13T13:25:58.784Z,9.33
2018-05-13T13:28:27.033Z,9.73
2018-05-13T13:30:56.350Z,12.33
2018-05-13T13:33:24.727Z,19.27
2018-05-13T13:35:53.957Z,20.70
2018-05-13T13:38:23.765Z,14.10
2018-05-13T13:40:53.691Z,13.10
2018-05-13T13:43:22.978Z,10.73
2018-05-13T13:45:51.232Z,11.47
2018-05-13T13:48:19.363Z,13.03
2018-05-13T13:50:47.546Z,11.77
2018-05-13T13:53:15.601Z,14.57
2018-05-13T13:55:44.486Z,15.00
2018-05-13T13:58:12.705Z,13.53
2018-05-13T14:00:40.880Z,11.67
2018-05-13T14:03:09.232Z,14.63
2018-05-13T14:05:38.893Z,9.60
2018-05-13T14:08:07.451Z,8.77
2018-05-13T14:10:35.700Z,8.70
2018-05-13T14:13:04.590Z,8.20
2018-05-13T14:15:33.624Z,7.53
2018-05-13T14:18:01.935Z,9.57
2018-05-13T14:20:30.162Z,11.30
2018-05-13T14:22:58.921Z,10.03
2018-05-13T14:25:28.094Z,10.43
2018-05-13T14:27:56.353Z,9.70
2018-05-13T14:30:24.498Z,11.40
2018-05-13T14:32:52.739Z,10.57
2018-05-13T14:35:20.935Z,10.03
2018-05-13T14:37:49.892Z,13.93
2018-05-13T14:40:18.294Z,12.60
2018-05-13T14:42:46.876Z,10.57
2018-05-13T14:45:15.129Z,10.50
2018-05-13T14:47:43.554Z,12.03
2018-05-13T14:50:12.823Z,14.40
2018-05-13T14:52:41.488Z,15.10
2018-05-13T14:55:09.675Z,13.73
2018-05-13T14:57:37.964Z,13.47
2018-05-13T15:00:06.998Z,14.27
2018-05-13T15:02:35.050Z,17.07
2018-05-13T15:05:03.239Z,14.93
2018-05-13T15:07:32.358Z,16.43
2018-05-13T15:10:00.798Z,12.77
2018-05-13T15:12:29.699Z,11.97
2018-05-13T15:14:58.770Z,15.10
2018-05-13T15:17:27.199Z,11.40
2018-05-13T15:19:56.187Z,13.20
2018-05-13T15:22:29.846Z,10.87
2018-05-13T15:24:58.301Z,10.17
2018-05-13T15:27:27.978Z,12.13
2018-05-13T15:29:56.339Z,12.00
2018-05-13T15:32:24.663Z,11.63
2018-05-13T15:34:53.393Z,12.10
2018-05-13T15:37:21.682Z,16.60
2018-05-13T15:39:50.520Z,15.43
2018-05-13T15:42:19.081Z,13.83
2018-05-13T15:44:47.329Z,12.40
2018-05-13T15:47:15.721Z,12.90
2018-05-13T15:49:43.988Z,13.77
2018-05-13T15:52:15.891Z,12.20
2018-05-13T15:54:45.618Z,12.70
2018-05-13T15:57:14.064Z,16.80
2018-05-13T15:59:42.226Z,11.67
2018-05-13T16:02:10.397Z,11.10
2018-05-13T16:04:38.480Z,12.67
2018-05-13T16:07:06.566Z,13.47
2018-05-13T16:09:34.674Z,13.00
2018-05-13T16:12:02.987Z,11.77
2018-05-13T16:14:31.826Z,12.23
2018-05-13T16:17:01.907Z,12.70
2018-05-13T16:19:31.011Z,16.20
2018-05-13T16:21:59.960Z,15.63
2018-05-13T16:24:29.377Z,12.40
2018-05-13T16:26:57.576Z,12.70
2018-05-13T16:29:27.522Z,11.00
2018-05-13T16:31:56.994Z,13.77
2018-05-13T16:34:25.310Z,10.60
2018-05-13T16:36:53.664Z,12.93
2018-05-13T16:39:25.775Z,12.83
2018-05-13T16:41:54.138Z,10.20
2018-05-13T16:44:23.845Z,14.67
2018-05-13T16:46:53.022Z,11.83
2018-05-13T16:49:22.054Z,11.57
2018-05-13T16:51:51.440Z,14.70
2018-05-13T16:54:21.593Z,14.03
2018-05-13T16:56:54.343Z,15.53
2018-05-13T16:59:25.472Z,13.47
2018-05-13T17:01:53.799Z,17.17
2018-05-13T17:04:23.633Z,15.07
2018-05-13T17:06:51.977Z,14.77
2018-05-13T17:09:22.278Z,16.60
2018-05-13T17:11:51.824Z,18.10
2018-05-13T17:14:20.873Z,14.50
2018-05-13T17:16:51.300Z,23.00
2018-05-13T17:19:20.329Z,16.77
2018-05-13T17:21:49.350Z,16.63
2018-05-13T17:24:19.330Z,16.60
2018-05-13T17:26:48.534Z,17.40
2018-05-13T17:29:18.574Z,16.33
2018-05-13T17:31:47.992Z,15.73
2018-05-13T17:34:17.038Z,16.97
2018-05-13T17:36:45.973Z,15.97
2018-05-13T17:39:15.875Z,15.93
2018-05-13T17:41:45.273Z,18.10
2018-05-13T17:44:13.634Z,17.90
2018-05-13T17:46:44.494Z,17.53
2018-05-13T17:49:17.355Z,19.40
2018-05-13T17:51:47.039Z,18.53
2018-05-13T17:54:18.323Z,21.03
2018-05-13T17:56:50.015Z,20.07
2018-05-13T17:59:22.516Z,24.97
2018-05-13T18:01:52.196Z,20.77
2018-05-13T18:04:22.310Z,21.37
2018-05-13T18:06:53.985Z,23.97
2018-05-13T18:09:22.170Z,20.47
2018-05-13T18:11:50.740Z,23.57
2018-05-13T18:14:20.374Z,19.27
2018-05-13T18:16:51.776Z,18.47
2018-05-13T18:19:20.563Z,20.27
2018-05-13T18:21:51.251Z,19.17
2018-05-13T18:24:21.388Z,17.00
2018-05-13T18:26:52.499Z,17.50
2018-05-13T18:29:22.400Z,14.93
2018-05-13T18:31:51.472Z,14.00
2018-05-13T18:34:21.219Z,15.43
2018-05-13T18:36:50.858Z,16.03
2018-05-13T18:39:20.415Z,16.27
2018-05-13T18:41:48.602Z,15.33
2018-05-13T18:44:17.188Z,16.43
2018-05-13T18:46:45.582Z,15.13
2018-05-13T18:49:14.346Z,14.03
2018-05-13T18:51:43.957Z,15.23
2018-05-13T18:54:12.270Z,15.83
2018-05-13T18:56:40.809Z,15.10
2018-05-13T18:59:09.371Z,14.40
2018-05-13T19:01:38.885Z,15.60
2018-05-13T19:04:07.185Z,15.33
2018-05-13T19:06:35.626Z,15.73
2018-05-13T19:09:06.402Z,15.40
2018-05-13T19:11:34.643Z,15.63
2018-05-13T19:14:02.945Z,17.13
2018-05-13T19:16:31.576Z,16.70
2018-05-13T19:19:00.729Z,18.13
2018-05-13T19:21:28.966Z,20.03
2018-05-13T19:23:57.499Z,17.57
2018-05-13T19:26:25.874Z,18.77
2018-05-13T19:28:55.280Z,18.93
2018-05-13T19:31:24.246Z,18.30
2018-05-13T19:33:52.422Z,20.13
2018-05-13T19:36:21.740Z,19.53
2018-05-13T19:38:50.438Z,20.40
2018-05-13T19:41:20.578Z,20.90
2018-05-13T19:43:48.949Z,20.80
2018-05-13T19:46:18.820Z,22.07
2018-05-13T19:48:47.805Z,23.67
2018-05-13T19:51:17.971Z,19.20
2018-05-13T19:53:47.133Z,19.77
2018-05-13T19:56:16.403Z,18.53
2018-05-13T19:58:45.242Z,18.43
2018-05-13T20:01:14.620Z,19.37
2018-05-13T20:03:44.051Z,18.50
2018-05-13T20:06:12.419Z,18.40
2018-05-13T20:08:41.407Z,18.13
2018-05-13T20:11:09.735Z,19.53
2018-05-13T20:13:38.506Z,19.53
2018-05-13T20:16:07.618Z,19.97
2018-05-13T20:18:37.089Z,19.40
2018-05-13T20:21:05.737Z,20.57
2018-05-13T20:23:34.343Z,22.37
2018-05-13T20:26:04.638Z,23.77
2018-05-13T20:28:34.126Z,22.17
2018-05-13T20:31:02.703Z,29.10
2018-05-13T20:33:31.417Z,23.93
2018-05-13T20:35:59.740Z,26.90
2018-05-13T20:38:29.020Z,26.00
2018-05-13T20:40:58.326Z,26.57
2018-05-13T20:43:27.188Z,30.47
2018-05-13T20:45:56.283Z,28.70
2018-05-13T20:48:25.245Z,27.57
2018-05-13T20:50:54.779Z,30.03
2018-05-13T20:53:23.096Z,30.13
2018-05-13T20:55:54.649Z,31.37
2018-05-13T20:58:22.781Z,34.13
2018-05-13T21:00:51.356Z,33.77
2018-05-13T21:03:19.597Z,30.10
2018-05-13T21:05:48.445Z,34.60
2018-05-13T21:08:17.107Z,30.87
2018-05-13T21:10:45.592Z,33.23
2018-05-13T21:13:15.243Z,34.53
2018-05-13T21:15:44.507Z,30.93
2018-05-13T21:18:13.258Z,33.27
2018-05-13T21:20:42.115Z,35.13
2018-05-13T21:23:11.312Z,35.23
2018-05-13T21:25:41.085Z,34.67
2018-05-13T21:28:09.374Z,33.93
2018-05-13T21:30:37.650Z,33.87
2018-05-13T21:33:06.851Z,38.43
2018-05-13T21:35:35.720Z,36.13
2018-05-13T21:38:05.446Z,34.47
2018-05-13T21:40:35.189Z,34.40
2018-05-13T21:43:04.663Z,34.23
2018-05-13T21:45:32.758Z,31.93
2018-05-13T21:48:01.850Z,35.70
2018-05-13T21:50:30.386Z,36.10
2018-05-13T21:52:58.458Z,36.33
2018-05-13T21:55:27.338Z,35.93
2018-05-13T21:57:57.494Z,34.67
2018-05-13T22:00:25.793Z,34.67
2018-05-13T22:02:54.272Z,34.30
2018-05-13T22:05:24.241Z,33.43
2018-05-13T22:07:52.743Z,36.10
2018-05-13T22:10:21.638Z,35.83
2018-05-13T22:12:49.891Z,38.47
2018-05-13T22:15:18.311Z,35.33
2018-05-13T22:17:46.625Z,36.77
2018-05-13T22:20:15.048Z,35.53
2018-05-13T22:22:44.433Z,36.57
2018-05-13T22:25:12.962Z,35.70
2018-05-13T22:27:41.099Z,35.10
2018-05-13T22:30:10.070Z,37.57
2018-05-13T22:32:38.420Z,37.57
2018-05-13T22:35:06.477Z,39.97
2018-05-13T22:37:34.950Z,35.50
2018-05-13T22:40:04.517Z,41.87
2018-05-13T22:42:33.781Z,38.60
2018-05-13T22:45:02.344Z,38.37
2018-05-13T22:47:31.640Z,38.53
2018-05-13T22:49:59.850Z,38.53
2018-05-13T22:52:28.778Z,37.47
2018-05-13T22:54:57.701Z,37.37
2018-05-13T22:57:27.472Z,38.13
2018-05-13T22:59:55.840Z,39.00
2018-05-13T23:02:24.459Z,40.53
2018-05-13T23:04:53.824Z,39.23
2018-05-13T23:07:22.536Z,38.93
2018-05-13T23:09:51.316Z,39.10
2018-05-13T23:12:21.013Z,40.90
2018-05-13T23:14:49.746Z,41.13
2018-05-13T23:17:19.340Z,41.37
2018-05-13T23:19:47.893Z,40.03
2018-05-13T23:22:25.417Z,41.43
2018-05-13T23:24:54.657Z,42.30
2018-05-13T23:27:23.300Z,41.33
2018-05-13T23:29:52.718Z,38.93
2018-05-13T23:32:21.181Z,39.33
2018-05-13T23:34:50.413Z,40.67
2018-05-13T23:37:18.711Z,38.47
2018-05-13T23:39:47.107Z,39.03
2018-05-13T23:42:15.265Z,42.13
2018-05-13T23:44:43.707Z,41.27
2018-05-13T23:47:12.576Z,40.47
2018-05-13T23:49:40.778Z,39.80
2018-05-13T23:52:08.860Z,39.40
2018-05-13T23:54:37.361Z,39.67
2018-05-13T23:57:05.470Z,38.87
2018-05-13T23:59:33.882Z,44.80
